sensor_id;sensor_type;location;lat;lon;timestamp;P1;durP1;ratioP1;P2;durP2;ratioP2
59972;SDS011;55298;-36.624;-64.282;2024-01-30T00:02:08;5.68;;;3.13;;
59972;SDS011;55298;-36.624;-64.282;2024-01-30T00:04:37;6.28;;;2.50;;
59972;SDS011;55298;-36.624;-64.282;2024-01-30T00:07:07;11.45;;;7.15;;
59972;SDS011;55298;-36.624;-64.282;2024-01-30T00:09:36;8.30;;;6.63;;
59972;SDS011;55298;-36.624;-64.282;2024-01-30T00:12:05;33.83;;;30.70;;
59972;SDS011;55298;-36.624;-64.282;2024-01-30T00:14:33;18.55;;;16.52;;
59972;SDS011;55298;-36.624;-64.282;2024-01-30T00:17:01;19.83;;;15.25;;
59972;SDS011;55298;-36.624;-64.282;2024-01-30T00:19:29;23.05;;;16.02;;
59972;SDS011;55298;-36.624;-64.282;2024-01-30T00:21:59;11.82;;;6.40;;
59972;SDS011;55298;-36.624;-64.282;2024-01-30T00:24:26;9.18;;;5.03;;
59972;SDS011;55298;-36.624;-64.282;2024-01-30T00:26:54;9.80;;;6.53;;
59972;SDS011;55298;-36.624;-64.282;2024-01-30T00:29:22;13.98;;;9.95;;
59972;SDS011;55298;-36.624;-64.282;2024-01-30T00:31:51;23.73;;;18.85;;
59972;SDS011;55298;-36.624;-64.282;2024-01-30T00:34:19;7.28;;;4.10;;
59972;SDS011;55298;-36.624;-64.282;2024-01-30T00:36:46;8.63;;;5.28;;
59972;SDS011;55298;-36.624;-64.282;2024-01-30T00:39:14;8.40;;;3.00;;
59972;SDS011;55298;-36.624;-64.282;2024-01-30T00:41:42;6.30;;;3.20;;
59972;SDS011;55298;-36.624;-64.282;2024-01-30T00:44:10;6.10;;;3.20;;
59972;SDS011;55298;-36.624;-64.282;2024-01-30T00:46:37;7.82;;;4.30;;
59972;SDS011;55298;-36.624;-64.282;2024-01-30T00:49:05;8.82;;;4.57;;
59972;SDS011;55298;-36.624;-64.282;2024-01-30T00:51:34;13.20;;;6.60;;
59972;SDS011;55298;-36.624;-64.282;2024-01-30T00:54:05;11.05;;;5.07;;
59972;SDS011;55298;-36.624;-64.282;2024-01-30T00:56:32;4.13;;;2.88;;
59972;SDS011;55298;-36.624;-64.282;2024-01-30T00:59:00;10.30;;;4.85;;
59972;SDS011;55298;-36.624;-64.282;2024-01-30T01:01:28;7.40;;;3.20;;
59972;SDS011;55298;-36.624;-64.282;2024-01-30T01:03:55;3.92;;;2.58;;
59972;SDS011;55298;-36.624;-64.282;2024-01-30T01:06:23;10.77;;;2.30;;
59972;SDS011;55298;-36.624;-64.282;2024-01-30T01:08:51;5.38;;;2.13;;
59972;SDS011;55298;-36.624;-64.282;2024-01-30T01:11:20;6.43;;;4.07;;
59972;SDS011;55298;-36.624;-64.282;2024-01-30T01:13:50;9.13;;;7.28;;
59972;SDS011;55298;-36.624;-64.282;2024-01-30T01:16:18;7.40;;;4.80;;
59972;SDS011;55298;-36.624;-64.282;2024-01-30T01:18:46;8.43;;;4.93;;
59972;SDS011;55298;-36.624;-64.282;2024-01-30T01:21:13;6.10;;;3.60;;
59972;SDS011;55298;-36.624;-64.282;2024-01-30T01:23:42;6.78;;;3.10;;
59972;SDS011;55298;-36.624;-64.282;2024-01-30T01:26:09;6.05;;;3.20;;
59972;SDS011;55298;-36.624;-64.282;2024-01-30T01:28:37;7.22;;;3.20;;
59972;SDS011;55298;-36.624;-64.282;2024-01-30T01:31:07;6.45;;;2.65;;
59972;SDS011;55298;-36.624;-64.282;2024-01-30T01:33:36;8.38;;;3.38;;
59972;SDS011;55298;-36.624;-64.282;2024-01-30T01:36:04;6.47;;;2.72;;
59972;SDS011;55298;-36.624;-64.282;2024-01-30T01:38:32;4.70;;;2.60;;
59972;SDS011;55298;-36.624;-64.282;2024-01-30T01:41:00;7.70;;;3.58;;
59972;SDS011;55298;-36.624;-64.282;2024-01-30T01:43:27;6.88;;;2.60;;
59972;SDS011;55298;-36.624;-64.282;2024-01-30T01:45:55;7.43;;;3.00;;
59972;SDS011;55298;-36.624;-64.282;2024-01-30T01:48:23;9.45;;;5.30;;
59972;SDS011;55298;-36.624;-64.282;2024-01-30T01:50:51;6.25;;;3.40;;
59972;SDS011;55298;-36.624;-64.282;2024-01-30T01:53:19;7.55;;;2.60;;
59972;SDS011;55298;-36.624;-64.282;2024-01-30T01:55:47;8.00;;;5.05;;
59972;SDS011;55298;-36.624;-64.282;2024-01-30T01:58:15;9.13;;;3.40;;
59972;SDS011;55298;-36.624;-64.282;2024-01-30T02:00:45;5.00;;;2.90;;
59972;SDS011;55298;-36.624;-64.282;2024-01-30T02:03:13;10.23;;;3.92;;
59972;SDS011;55298;-36.624;-64.282;2024-01-30T02:05:42;5.30;;;2.70;;
59972;SDS011;55298;-36.624;-64.282;2024-01-30T02:08:10;6.47;;;2.60;;
59972;SDS011;55298;-36.624;-64.282;2024-01-30T02:10:38;5.80;;;3.00;;
59972;SDS011;55298;-36.624;-64.282;2024-01-30T02:13:05;6.10;;;2.97;;
59972;SDS011;55298;-36.624;-64.282;2024-01-30T02:15:33;3.75;;;2.58;;
59972;SDS011;55298;-36.624;-64.282;2024-01-30T02:18:01;4.65;;;2.95;;
59972;SDS011;55298;-36.624;-64.282;2024-01-30T02:20:33;8.30;;;4.28;;
59972;SDS011;55298;-36.624;-64.282;2024-01-30T02:23:04;8.35;;;3.78;;
59972;SDS011;55298;-36.624;-64.282;2024-01-30T02:25:35;9.57;;;5.78;;
59972;SDS011;55298;-36.624;-64.282;2024-01-30T02:28:10;12.10;;;8.02;;
59972;SDS011;55298;-36.624;-64.282;2024-01-30T02:30:40;7.32;;;4.00;;
59972;SDS011;55298;-36.624;-64.282;2024-01-30T02:33:10;10.85;;;4.40;;
59972;SDS011;55298;-36.624;-64.282;2024-01-30T02:35:38;8.55;;;5.93;;
59972;SDS011;55298;-36.624;-64.282;2024-01-30T02:38:06;7.88;;;4.57;;
59972;SDS011;55298;-36.624;-64.282;2024-01-30T02:40:34;11.20;;;5.95;;
59972;SDS011;55298;-36.624;-64.282;2024-01-30T02:43:02;8.20;;;4.20;;
59972;SDS011;55298;-36.624;-64.282;2024-01-30T02:45:30;6.90;;;3.10;;
59972;SDS011;55298;-36.624;-64.282;2024-01-30T02:47:58;6.68;;;4.15;;
59972;SDS011;55298;-36.624;-64.282;2024-01-30T02:50:25;6.82;;;3.10;;
59972;SDS011;55298;-36.624;-64.282;2024-01-30T02:52:53;7.60;;;2.90;;
59972;SDS011;55298;-36.624;-64.282;2024-01-30T02:55:21;6.13;;;2.50;;
59972;SDS011;55298;-36.624;-64.282;2024-01-30T02:57:48;7.88;;;2.20;;
59972;SDS011;55298;-36.624;-64.282;2024-01-30T03:00:16;6.30;;;1.95;;
59972;SDS011;55298;-36.624;-64.282;2024-01-30T03:02:45;4.93;;;2.00;;
59972;SDS011;55298;-36.624;-64.282;2024-01-30T03:05:12;5.00;;;1.90;;
59972;SDS011;55298;-36.624;-64.282;2024-01-30T03:07:40;3.53;;;1.70;;
59972;SDS011;55298;-36.624;-64.282;2024-01-30T03:10:08;4.32;;;2.00;;
59972;SDS011;55298;-36.624;-64.282;2024-01-30T03:12:37;5.93;;;2.15;;
59972;SDS011;55298;-36.624;-64.282;2024-01-30T03:15:05;4.38;;;2.10;;
59972;SDS011;55298;-36.624;-64.282;2024-01-30T03:17:36;7.85;;;2.15;;
59972;SDS011;55298;-36.624;-64.282;2024-01-30T03:20:04;7.30;;;2.78;;
59972;SDS011;55298;-36.624;-64.282;2024-01-30T03:22:32;4.05;;;2.28;;
59972;SDS011;55298;-36.624;-64.282;2024-01-30T03:25:00;6.53;;;2.03;;
59972;SDS011;55298;-36.624;-64.282;2024-01-30T03:27:27;5.47;;;1.70;;
59972;SDS011;55298;-36.624;-64.282;2024-01-30T03:29:55;5.00;;;2.60;;
59972;SDS011;55298;-36.624;-64.282;2024-01-30T03:32:23;16.67;;;11.77;;
59972;SDS011;55298;-36.624;-64.282;2024-01-30T03:34:50;12.82;;;7.47;;
59972;SDS011;55298;-36.624;-64.282;2024-01-30T03:37:18;10.02;;;6.25;;
59972;SDS011;55298;-36.624;-64.282;2024-01-30T03:39:46;6.28;;;3.35;;
59972;SDS011;55298;-36.624;-64.282;2024-01-30T03:42:13;8.73;;;3.03;;
59972;SDS011;55298;-36.624;-64.282;2024-01-30T03:44:41;8.70;;;2.33;;
59972;SDS011;55298;-36.624;-64.282;2024-01-30T03:47:10;4.38;;;2.15;;
59972;SDS011;55298;-36.624;-64.282;2024-01-30T03:49:38;3.83;;;1.90;;
59972;SDS011;55298;-36.624;-64.282;2024-01-30T03:52:06;6.68;;;2.05;;
59972;SDS011;55298;-36.624;-64.282;2024-01-30T03:54:33;4.75;;;1.70;;
59972;SDS011;55298;-36.624;-64.282;2024-01-30T03:57:01;4.60;;;1.65;;
59972;SDS011;55298;-36.624;-64.282;2024-01-30T03:59:29;4.57;;;1.80;;
59972;SDS011;55298;-36.624;-64.282;2024-01-30T04:01:57;7.65;;;1.90;;
59972;SDS011;55298;-36.624;-64.282;2024-01-30T04:04:24;6.47;;;2.50;;
59972;SDS011;55298;-36.624;-64.282;2024-01-30T04:06:52;3.58;;;1.60;;
59972;SDS011;55298;-36.624;-64.282;2024-01-30T04:09:19;5.03;;;1.90;;
59972;SDS011;55298;-36.624;-64.282;2024-01-30T04:11:47;2.35;;;1.70;;
59972;SDS011;55298;-36.624;-64.282;2024-01-30T04:14:15;4.07;;;1.80;;
59972;SDS011;55298;-36.624;-64.282;2024-01-30T04:16:43;4.70;;;1.83;;
59972;SDS011;55298;-36.624;-64.282;2024-01-30T04:19:11;3.38;;;1.65;;
59972;SDS011;55298;-36.624;-64.282;2024-01-30T04:21:38;5.07;;;1.67;;
59972;SDS011;55298;-36.624;-64.282;2024-01-30T04:24:06;2.78;;;1.60;;
59972;SDS011;55298;-36.624;-64.282;2024-01-30T04:26:34;5.20;;;1.80;;
59972;SDS011;55298;-36.624;-64.282;2024-01-30T04:29:02;5.13;;;1.75;;
59972;SDS011;55298;-36.624;-64.282;2024-01-30T04:31:30;5.07;;;1.63;;
59972;SDS011;55298;-36.624;-64.282;2024-01-30T04:33:57;2.33;;;1.67;;
59972;SDS011;55298;-36.624;-64.282;2024-01-30T04:36:25;4.22;;;1.85;;
59972;SDS011;55298;-36.624;-64.282;2024-01-30T04:38:52;3.92;;;1.67;;
59972;SDS011;55298;-36.624;-64.282;2024-01-30T04:41:20;4.53;;;2.13;;
59972;SDS011;55298;-36.624;-64.282;2024-01-30T04:43:48;4.38;;;1.75;;
59972;SDS011;55298;-36.624;-64.282;2024-01-30T04:46:16;4.00;;;1.77;;
59972;SDS011;55298;-36.624;-64.282;2024-01-30T04:48:43;6.38;;;1.77;;
59972;SDS011;55298;-36.624;-64.282;2024-01-30T04:51:11;4.13;;;1.60;;
59972;SDS011;55298;-36.624;-64.282;2024-01-30T04:53:39;4.50;;;2.10;;
59972;SDS011;55298;-36.624;-64.282;2024-01-30T04:56:06;6.15;;;1.80;;
59972;SDS011;55298;-36.624;-64.282;2024-01-30T04:58:34;4.70;;;1.63;;
59972;SDS011;55298;-36.624;-64.282;2024-01-30T05:01:02;5.80;;;1.90;;
59972;SDS011;55298;-36.624;-64.282;2024-01-30T05:03:32;3.47;;;1.75;;
59972;SDS011;55298;-36.624;-64.282;2024-01-30T05:06:00;12.00;;;7.63;;
59972;SDS011;55298;-36.624;-64.282;2024-01-30T05:08:28;4.22;;;1.80;;
59972;SDS011;55298;-36.624;-64.282;2024-01-30T05:10:56;6.05;;;1.60;;
59972;SDS011;55298;-36.624;-64.282;2024-01-30T05:13:26;5.65;;;2.13;;
59972;SDS011;55298;-36.624;-64.282;2024-01-30T05:15:54;3.33;;;1.65;;
59972;SDS011;55298;-36.624;-64.282;2024-01-30T05:18:21;3.92;;;1.83;;
59972;SDS011;55298;-36.624;-64.282;2024-01-30T05:20:50;5.05;;;1.70;;
59972;SDS011;55298;-36.624;-64.282;2024-01-30T05:23:18;4.10;;;1.80;;
59972;SDS011;55298;-36.624;-64.282;2024-01-30T05:25:45;4.03;;;1.90;;
59972;SDS011;55298;-36.624;-64.282;2024-01-30T05:28:13;3.65;;;2.00;;
59972;SDS011;55298;-36.624;-64.282;2024-01-30T05:30:41;3.70;;;1.80;;
59972;SDS011;55298;-36.624;-64.282;2024-01-30T05:33:09;4.97;;;1.83;;
59972;SDS011;55298;-36.624;-64.282;2024-01-30T05:35:37;1.70;;;1.60;;
59972;SDS011;55298;-36.624;-64.282;2024-01-30T05:38:05;4.53;;;1.80;;
59972;SDS011;55298;-36.624;-64.282;2024-01-30T05:40:33;3.60;;;1.77;;
59972;SDS011;55298;-36.624;-64.282;2024-01-30T05:43:01;1.88;;;1.50;;
59972;SDS011;55298;-36.624;-64.282;2024-01-30T05:45:28;4.55;;;1.50;;
59972;SDS011;55298;-36.624;-64.282;2024-01-30T05:47:56;4.95;;;1.77;;
59972;SDS011;55298;-36.624;-64.282;2024-01-30T05:50:24;4.97;;;1.80;;
59972;SDS011;55298;-36.624;-64.282;2024-01-30T05:52:53;4.43;;;1.65;;
59972;SDS011;55298;-36.624;-64.282;2024-01-30T05:55:20;2.95;;;1.55;;
59972;SDS011;55298;-36.624;-64.282;2024-01-30T05:57:48;2.72;;;1.50;;
59972;SDS011;55298;-36.624;-64.282;2024-01-30T06:00:16;2.25;;;1.50;;
59972;SDS011;55298;-36.624;-64.282;2024-01-30T06:02:44;3.35;;;1.70;;
59972;SDS011;55298;-36.624;-64.282;2024-01-30T06:05:12;5.55;;;1.70;;
59972;SDS011;55298;-36.624;-64.282;2024-01-30T06:07:40;2.45;;;1.67;;
59972;SDS011;55298;-36.624;-64.282;2024-01-30T06:10:07;4.13;;;1.70;;
59972;SDS011;55298;-36.624;-64.282;2024-01-30T06:12:35;2.97;;;1.70;;
59972;SDS011;55298;-36.624;-64.282;2024-01-30T06:15:04;3.47;;;1.80;;
59972;SDS011;55298;-36.624;-64.282;2024-01-30T06:17:32;4.22;;;2.15;;
59972;SDS011;55298;-36.624;-64.282;2024-01-30T06:20:00;3.65;;;1.52;;
59972;SDS011;55298;-36.624;-64.282;2024-01-30T06:22:28;4.50;;;1.80;;
59972;SDS011;55298;-36.624;-64.282;2024-01-30T06:24:55;5.85;;;1.70;;
59972;SDS011;55298;-36.624;-64.282;2024-01-30T06:27:23;2.92;;;1.70;;
59972;SDS011;55298;-36.624;-64.282;2024-01-30T06:29:50;7.18;;;1.77;;
59972;SDS011;55298;-36.624;-64.282;2024-01-30T06:32:18;6.35;;;1.80;;
59972;SDS011;55298;-36.624;-64.282;2024-01-30T06:34:46;4.32;;;1.63;;
59972;SDS011;55298;-36.624;-64.282;2024-01-30T06:37:14;3.90;;;1.90;;
59972;SDS011;55298;-36.624;-64.282;2024-01-30T06:39:41;3.78;;;1.77;;
59972;SDS011;55298;-36.624;-64.282;2024-01-30T06:42:12;3.80;;;1.65;;
59972;SDS011;55298;-36.624;-64.282;2024-01-30T06:44:40;2.40;;;1.50;;
59972;SDS011;55298;-36.624;-64.282;2024-01-30T06:47:08;2.88;;;1.52;;
59972;SDS011;55298;-36.624;-64.282;2024-01-30T06:49:36;4.00;;;1.80;;
59972;SDS011;55298;-36.624;-64.282;2024-01-30T06:52:05;4.70;;;1.80;;
59972;SDS011;55298;-36.624;-64.282;2024-01-30T06:54:34;5.25;;;1.63;;
59972;SDS011;55298;-36.624;-64.282;2024-01-30T06:57:02;7.00;;;1.80;;
59972;SDS011;55298;-36.624;-64.282;2024-01-30T06:59:30;4.43;;;1.70;;
59972;SDS011;55298;-36.624;-64.282;2024-01-30T07:01:57;4.20;;;2.03;;
59972;SDS011;55298;-36.624;-64.282;2024-01-30T07:04:25;3.95;;;1.80;;
59972;SDS011;55298;-36.624;-64.282;2024-01-30T07:06:53;5.57;;;1.90;;
59972;SDS011;55298;-36.624;-64.282;2024-01-30T07:09:20;4.28;;;1.70;;
59972;SDS011;55298;-36.624;-64.282;2024-01-30T07:11:48;3.60;;;1.65;;
59972;SDS011;55298;-36.624;-64.282;2024-01-30T07:14:16;3.45;;;1.70;;
59972;SDS011;55298;-36.624;-64.282;2024-01-30T07:16:44;2.85;;;1.67;;
59972;SDS011;55298;-36.624;-64.282;2024-01-30T07:19:12;3.58;;;1.80;;
59972;SDS011;55298;-36.624;-64.282;2024-01-30T07:21:40;4.40;;;1.95;;
59972;SDS011;55298;-36.624;-64.282;2024-01-30T07:24:08;3.63;;;1.80;;
59972;SDS011;55298;-36.624;-64.282;2024-01-30T07:26:36;3.67;;;1.60;;
59972;SDS011;55298;-36.624;-64.282;2024-01-30T07:29:03;2.03;;;1.50;;
59972;SDS011;55298;-36.624;-64.282;2024-01-30T07:31:31;6.35;;;2.10;;
59972;SDS011;55298;-36.624;-64.282;2024-01-30T07:33:59;4.65;;;1.52;;
59972;SDS011;55298;-36.624;-64.282;2024-01-30T07:36:26;3.17;;;1.75;;
59972;SDS011;55298;-36.624;-64.282;2024-01-30T07:38:54;3.10;;;1.55;;
59972;SDS011;55298;-36.624;-64.282;2024-01-30T07:41:21;5.63;;;1.80;;
59972;SDS011;55298;-36.624;-64.282;2024-01-30T07:43:51;5.65;;;2.13;;
59972;SDS011;55298;-36.624;-64.282;2024-01-30T07:46:19;4.97;;;2.05;;
59972;SDS011;55298;-36.624;-64.282;2024-01-30T07:48:47;5.10;;;1.60;;
59972;SDS011;55298;-36.624;-64.282;2024-01-30T07:51:14;3.85;;;1.60;;
59972;SDS011;55298;-36.624;-64.282;2024-01-30T07:53:42;5.82;;;2.30;;
59972;SDS011;55298;-36.624;-64.282;2024-01-30T07:56:10;5.88;;;1.95;;
59972;SDS011;55298;-36.624;-64.282;2024-01-30T07:58:38;3.15;;;1.73;;
59972;SDS011;55298;-36.624;-64.282;2024-01-30T08:01:06;5.22;;;1.85;;
59972;SDS011;55298;-36.624;-64.282;2024-01-30T08:03:33;5.28;;;1.77;;
59972;SDS011;55298;-36.624;-64.282;2024-01-30T08:06:02;2.55;;;1.60;;
59972;SDS011;55298;-36.624;-64.282;2024-01-30T08:08:30;3.03;;;1.65;;
59972;SDS011;55298;-36.624;-64.282;2024-01-30T08:10:58;3.88;;;2.05;;
59972;SDS011;55298;-36.624;-64.282;2024-01-30T08:13:25;3.45;;;1.70;;
59972;SDS011;55298;-36.624;-64.282;2024-01-30T08:15:53;4.68;;;1.50;;
59972;SDS011;55298;-36.624;-64.282;2024-01-30T08:18:21;5.40;;;2.00;;
59972;SDS011;55298;-36.624;-64.282;2024-01-30T08:20:49;4.78;;;2.00;;
59972;SDS011;55298;-36.624;-64.282;2024-01-30T08:23:16;5.93;;;2.15;;
59972;SDS011;55298;-36.624;-64.282;2024-01-30T08:25:44;4.47;;;2.30;;
59972;SDS011;55298;-36.624;-64.282;2024-01-30T08:28:11;2.92;;;1.80;;
59972;SDS011;55298;-36.624;-64.282;2024-01-30T08:30:39;4.18;;;2.30;;
59972;SDS011;55298;-36.624;-64.282;2024-01-30T08:33:07;5.50;;;1.90;;
59972;SDS011;55298;-36.624;-64.282;2024-01-30T08:35:34;5.72;;;2.40;;
59972;SDS011;55298;-36.624;-64.282;2024-01-30T08:38:03;5.22;;;2.17;;
59972;SDS011;55298;-36.624;-64.282;2024-01-30T08:40:30;4.93;;;2.30;;
59972;SDS011;55298;-36.624;-64.282;2024-01-30T08:42:58;4.53;;;2.20;;
59972;SDS011;55298;-36.624;-64.282;2024-01-30T08:45:26;7.05;;;2.72;;
59972;SDS011;55298;-36.624;-64.282;2024-01-30T08:47:55;3.10;;;1.90;;
59972;SDS011;55298;-36.624;-64.282;2024-01-30T08:50:23;4.30;;;1.95;;
59972;SDS011;55298;-36.624;-64.282;2024-01-30T08:52:50;7.05;;;2.20;;
59972;SDS011;55298;-36.624;-64.282;2024-01-30T08:55:18;3.13;;;1.90;;
59972;SDS011;55298;-36.624;-64.282;2024-01-30T08:57:46;3.65;;;1.90;;
59972;SDS011;55298;-36.624;-64.282;2024-01-30T09:00:13;4.90;;;1.83;;
59972;SDS011;55298;-36.624;-64.282;2024-01-30T09:02:41;5.97;;;2.05;;
59972;SDS011;55298;-36.624;-64.282;2024-01-30T09:05:09;7.57;;;2.00;;
59972;SDS011;55298;-36.624;-64.282;2024-01-30T09:07:37;4.03;;;1.70;;
59972;SDS011;55298;-36.624;-64.282;2024-01-30T09:10:05;4.28;;;1.60;;
59972;SDS011;55298;-36.624;-64.282;2024-01-30T09:12:33;4.25;;;1.95;;
59972;SDS011;55298;-36.624;-64.282;2024-01-30T09:15:00;5.25;;;2.03;;
59972;SDS011;55298;-36.624;-64.282;2024-01-30T09:17:28;5.95;;;2.40;;
59972;SDS011;55298;-36.624;-64.282;2024-01-30T09:19:56;5.97;;;2.13;;
59972;SDS011;55298;-36.624;-64.282;2024-01-30T09:22:24;6.00;;;2.35;;
59972;SDS011;55298;-36.624;-64.282;2024-01-30T09:24:52;5.00;;;1.90;;
59972;SDS011;55298;-36.624;-64.282;2024-01-30T09:27:19;2.90;;;1.85;;
59972;SDS011;55298;-36.624;-64.282;2024-01-30T09:29:47;7.65;;;2.20;;
59972;SDS011;55298;-36.624;-64.282;2024-01-30T09:32:15;6.43;;;2.20;;
59972;SDS011;55298;-36.624;-64.282;2024-01-30T09:34:43;8.77;;;2.30;;
59972;SDS011;55298;-36.624;-64.282;2024-01-30T09:37:11;8.45;;;2.20;;
59972;SDS011;55298;-36.624;-64.282;2024-01-30T09:39:41;13.73;;;2.90;;
59972;SDS011;55298;-36.624;-64.282;2024-01-30T09:42:11;6.13;;;2.45;;
59972;SDS011;55298;-36.624;-64.282;2024-01-30T09:44:52;6.90;;;2.15;;
59972;SDS011;55298;-36.624;-64.282;2024-01-30T09:47:21;6.13;;;2.30;;
59972;SDS011;55298;-36.624;-64.282;2024-01-30T09:49:49;3.80;;;1.75;;
59972;SDS011;55298;-36.624;-64.282;2024-01-30T09:52:18;3.22;;;2.00;;
59972;SDS011;55298;-36.624;-64.282;2024-01-30T09:54:46;6.80;;;2.47;;
59972;SDS011;55298;-36.624;-64.282;2024-01-30T09:57:18;7.25;;;2.80;;
59972;SDS011;55298;-36.624;-64.282;2024-01-30T09:59:46;10.40;;;3.10;;
59972;SDS011;55298;-36.624;-64.282;2024-01-30T10:02:16;7.15;;;2.70;;
59972;SDS011;55298;-36.624;-64.282;2024-01-30T10:04:48;5.15;;;2.60;;
59972;SDS011;55298;-36.624;-64.282;2024-01-30T10:07:17;7.43;;;4.43;;
59972;SDS011;55298;-36.624;-64.282;2024-01-30T10:09:46;10.10;;;3.88;;
59972;SDS011;55298;-36.624;-64.282;2024-01-30T10:12:15;8.02;;;3.40;;
59972;SDS011;55298;-36.624;-64.282;2024-01-30T10:14:43;7.53;;;2.65;;
59972;SDS011;55298;-36.624;-64.282;2024-01-30T10:17:12;6.38;;;2.75;;
59972;SDS011;55298;-36.624;-64.282;2024-01-30T10:19:40;5.05;;;2.60;;
59972;SDS011;55298;-36.624;-64.282;2024-01-30T10:22:14;12.02;;;4.57;;
59972;SDS011;55298;-36.624;-64.282;2024-01-30T10:24:42;7.38;;;4.00;;
59972;SDS011;55298;-36.624;-64.282;2024-01-30T10:27:15;15.38;;;5.85;;
59972;SDS011;55298;-36.624;-64.282;2024-01-30T10:29:43;13.90;;;4.63;;
59972;SDS011;55298;-36.624;-64.282;2024-01-30T10:32:14;11.20;;;6.13;;
59972;SDS011;55298;-36.624;-64.282;2024-01-30T10:34:43;12.95;;;5.70;;
59972;SDS011;55298;-36.624;-64.282;2024-01-30T10:37:12;16.73;;;10.43;;
59972;SDS011;55298;-36.624;-64.282;2024-01-30T10:39:42;18.08;;;15.05;;
59972;SDS011;55298;-36.624;-64.282;2024-01-30T10:42:13;18.20;;;7.90;;
59972;SDS011;55298;-36.624;-64.282;2024-01-30T10:44:57;13.60;;;6.30;;
59972;SDS011;55298;-36.624;-64.282;2024-01-30T10:47:35;15.87;;;6.93;;
59972;SDS011;55298;-36.624;-64.282;2024-01-30T10:50:04;18.85;;;7.63;;
59972;SDS011;55298;-36.624;-64.282;2024-01-30T10:52:33;16.92;;;7.43;;
59972;SDS011;55298;-36.624;-64.282;2024-01-30T10:55:02;16.60;;;6.28;;
59972;SDS011;55298;-36.624;-64.282;2024-01-30T10:57:33;18.55;;;7.15;;
59972;SDS011;55298;-36.624;-64.282;2024-01-30T11:00:04;18.33;;;5.63;;
59972;SDS011;55298;-36.624;-64.282;2024-01-30T11:02:39;12.40;;;4.53;;
59972;SDS011;55298;-36.624;-64.282;2024-01-30T11:05:10;11.65;;;4.80;;
59972;SDS011;55298;-36.624;-64.282;2024-01-30T11:07:39;10.80;;;4.45;;
59972;SDS011;55298;-36.624;-64.282;2024-01-30T11:10:09;9.00;;;3.35;;
59972;SDS011;55298;-36.624;-64.282;2024-01-30T11:12:40;10.68;;;3.00;;
59972;SDS011;55298;-36.624;-64.282;2024-01-30T11:15:12;10.25;;;3.72;;
59972;SDS011;55298;-36.624;-64.282;2024-01-30T11:17:43;10.05;;;3.28;;
59972;SDS011;55298;-36.624;-64.282;2024-01-30T11:20:22;11.75;;;3.50;;
59972;SDS011;55298;-36.624;-64.282;2024-01-30T11:22:54;11.35;;;3.65;;
59972;SDS011;55298;-36.624;-64.282;2024-01-30T11:25:24;8.75;;;2.55;;
59972;SDS011;55298;-36.624;-64.282;2024-01-30T11:27:52;10.63;;;2.67;;
59972;SDS011;55298;-36.624;-64.282;2024-01-30T11:30:29;5.82;;;2.50;;
59972;SDS011;55298;-36.624;-64.282;2024-01-30T11:33:09;8.75;;;2.40;;
59972;SDS011;55298;-36.624;-64.282;2024-01-30T11:35:39;8.50;;;2.65;;
59972;SDS011;55298;-36.624;-64.282;2024-01-30T11:38:09;8.63;;;2.65;;
59972;SDS011;55298;-36.624;-64.282;2024-01-30T11:40:40;7.63;;;2.38;;
59972;SDS011;55298;-36.624;-64.282;2024-01-30T11:43:12;9.40;;;3.20;;
59972;SDS011;55298;-36.624;-64.282;2024-01-30T11:45:40;7.88;;;2.45;;
59972;SDS011;55298;-36.624;-64.282;2024-01-30T11:48:14;8.43;;;2.00;;
59972;SDS011;55298;-36.624;-64.282;2024-01-30T11:50:42;5.00;;;2.55;;
59972;SDS011;55298;-36.624;-64.282;2024-01-30T11:53:11;11.05;;;4.65;;
59972;SDS011;55298;-36.624;-64.282;2024-01-30T11:55:39;8.98;;;1.92;;
59972;SDS011;55298;-36.624;-64.282;2024-01-30T11:58:08;5.95;;;2.20;;
59972;SDS011;55298;-36.624;-64.282;2024-01-30T12:00:37;7.57;;;2.20;;
59972;SDS011;55298;-36.624;-64.282;2024-01-30T12:03:05;8.32;;;2.20;;
59972;SDS011;55298;-36.624;-64.282;2024-01-30T12:05:36;7.00;;;2.25;;
59972;SDS011;55298;-36.624;-64.282;2024-01-30T12:08:13;6.97;;;2.33;;
59972;SDS011;55298;-36.624;-64.282;2024-01-30T12:10:42;7.25;;;2.10;;
59972;SDS011;55298;-36.624;-64.282;2024-01-30T12:13:10;6.07;;;2.00;;
59972;SDS011;55298;-36.624;-64.282;2024-01-30T12:15:39;7.07;;;2.30;;
59972;SDS011;55298;-36.624;-64.282;2024-01-30T12:18:08;5.70;;;2.10;;
59972;SDS011;55298;-36.624;-64.282;2024-01-30T12:20:36;8.45;;;3.05;;
59972;SDS011;55298;-36.624;-64.282;2024-01-30T12:23:05;5.47;;;2.00;;
59972;SDS011;55298;-36.624;-64.282;2024-01-30T12:25:33;5.82;;;2.00;;
59972;SDS011;55298;-36.624;-64.282;2024-01-30T12:28:09;5.60;;;2.10;;
59972;SDS011;55298;-36.624;-64.282;2024-01-30T12:30:41;7.35;;;2.20;;
59972;SDS011;55298;-36.624;-64.282;2024-01-30T12:33:09;5.78;;;3.90;;
59972;SDS011;55298;-36.624;-64.282;2024-01-30T12:35:45;6.28;;;1.80;;
59972;SDS011;55298;-36.624;-64.282;2024-01-30T12:38:14;5.05;;;2.05;;
59972;SDS011;55298;-36.624;-64.282;2024-01-30T12:40:42;9.55;;;2.22;;
59972;SDS011;55298;-36.624;-64.282;2024-01-30T12:43:11;6.90;;;2.00;;
59972;SDS011;55298;-36.624;-64.282;2024-01-30T12:45:41;5.60;;;1.92;;
59972;SDS011;55298;-36.624;-64.282;2024-01-30T12:48:09;5.30;;;2.10;;
59972;SDS011;55298;-36.624;-64.282;2024-01-30T12:50:41;5.80;;;2.88;;
59972;SDS011;55298;-36.624;-64.282;2024-01-30T12:53:10;4.88;;;2.25;;
59972;SDS011;55298;-36.624;-64.282;2024-01-30T12:55:38;6.70;;;2.22;;
59972;SDS011;55298;-36.624;-64.282;2024-01-30T12:58:10;5.80;;;2.30;;
59972;SDS011;55298;-36.624;-64.282;2024-01-30T13:00:38;9.27;;;2.70;;
59972;SDS011;55298;-36.624;-64.282;2024-01-30T13:03:06;10.68;;;3.00;;
59972;SDS011;55298;-36.624;-64.282;2024-01-30T13:05:34;8.75;;;4.25;;
59972;SDS011;55298;-36.624;-64.282;2024-01-30T13:08:02;7.30;;;2.92;;
59972;SDS011;55298;-36.624;-64.282;2024-01-30T13:10:30;8.48;;;3.00;;
59972;SDS011;55298;-36.624;-64.282;2024-01-30T13:12:58;5.88;;;2.38;;
59972;SDS011;55298;-36.624;-64.282;2024-01-30T13:15:25;6.80;;;2.60;;
59972;SDS011;55298;-36.624;-64.282;2024-01-30T13:17:53;10.60;;;3.00;;
59972;SDS011;55298;-36.624;-64.282;2024-01-30T13:20:21;7.25;;;2.45;;
59972;SDS011;55298;-36.624;-64.282;2024-01-30T13:22:49;7.30;;;2.53;;
59972;SDS011;55298;-36.624;-64.282;2024-01-30T13:25:36;8.82;;;2.75;;
59972;SDS011;55298;-36.624;-64.282;2024-01-30T13:28:08;7.25;;;2.58;;
59972;SDS011;55298;-36.624;-64.282;2024-01-30T13:33:03;6.85;;;2.50;;
59972;SDS011;55298;-36.624;-64.282;2024-01-30T13:35:31;7.43;;;2.90;;
59972;SDS011;55298;-36.624;-64.282;2024-01-30T13:37:59;6.18;;;2.22;;
59972;SDS011;55298;-36.624;-64.282;2024-01-30T13:40:30;6.57;;;2.67;;
59972;SDS011;55298;-36.624;-64.282;2024-01-30T13:42:58;5.57;;;2.50;;
59972;SDS011;55298;-36.624;-64.282;2024-01-30T13:45:28;4.80;;;2.80;;
59972;SDS011;55298;-36.624;-64.282;2024-01-30T13:48:03;7.10;;;2.70;;
59972;SDS011;55298;-36.624;-64.282;2024-01-30T13:50:32;8.07;;;3.03;;
59972;SDS011;55298;-36.624;-64.282;2024-01-30T13:53:02;6.00;;;2.33;;
59972;SDS011;55298;-36.624;-64.282;2024-01-30T13:55:31;6.82;;;3.45;;
59972;SDS011;55298;-36.624;-64.282;2024-01-30T13:57:59;6.20;;;2.80;;
59972;SDS011;55298;-36.624;-64.282;2024-01-30T14:00:27;5.57;;;2.17;;
59972;SDS011;55298;-36.624;-64.282;2024-01-30T14:02:55;9.65;;;2.40;;
59972;SDS011;55298;-36.624;-64.282;2024-01-30T14:05:24;7.75;;;2.50;;
59972;SDS011;55298;-36.624;-64.282;2024-01-30T14:07:54;12.02;;;2.90;;
59972;SDS011;55298;-36.624;-64.282;2024-01-30T14:10:23;5.65;;;2.25;;
59972;SDS011;55298;-36.624;-64.282;2024-01-30T14:12:51;7.18;;;3.03;;
59972;SDS011;55298;-36.624;-64.282;2024-01-30T14:15:19;7.15;;;2.78;;
59972;SDS011;55298;-36.624;-64.282;2024-01-30T14:17:47;6.30;;;2.30;;